sensor_id;sensor_type;location;lat;lon;timestamp;P1;durP1;ratioP1;P2;durP2;ratioP2
10275;SDS011;5183;51.190;6.820;2022-12-18T06:33:20;17.60;;;12.50;;
10275;SDS011;5183;51.190;6.820;2022-12-18T06:35:47;17.70;;;12.70;;
10275;SDS011;5183;51.190;6.820;2022-12-18T06:38:14;17.07;;;12.30;;
10275;SDS011;5183;51.190;6.820;2022-12-18T06:40:40;18.50;;;12.17;;
10275;SDS011;5183;51.190;6.820;2022-12-18T06:43:07;19.30;;;13.07;;
10275;SDS011;5183;51.190;6.820;2022-12-18T06:45:34;18.57;;;13.00;;
10275;SDS011;5183;51.190;6.820;2022-12-18T06:48:03;20.83;;;13.53;;
10275;SDS011;5183;51.190;6.820;2022-12-18T06:50:30;19.53;;;13.07;;
10275;SDS011;5183;51.190;6.820;2022-12-18T06:52:57;17.93;;;13.13;;
10275;SDS011;5183;51.190;6.820;2022-12-18T06:55:24;20.43;;;13.70;;
10275;SDS011;5183;51.190;6.820;2022-12-18T06:57:51;22.40;;;14.07;;
10275;SDS011;5183;51.190;6.820;2022-12-18T07:00:18;18.90;;;12.93;;
10275;SDS011;5183;51.190;6.820;2022-12-18T07:02:45;20.10;;;12.93;;
10275;SDS011;5183;51.190;6.820;2022-12-18T07:05:13;21.50;;;14.10;;
10275;SDS011;5183;51.190;6.820;2022-12-18T07:07:40;19.17;;;13.30;;
10275;SDS011;5183;51.190;6.820;2022-12-18T07:10:07;18.47;;;12.63;;
10275;SDS011;5183;51.190;6.820;2022-12-18T07:12:34;17.47;;;12.53;;
10275;SDS011;5183;51.190;6.820;2022-12-18T07:15:01;18.87;;;12.30;;
10275;SDS011;5183;51.190;6.820;2022-12-18T07:17:28;17.53;;;12.33;;
10275;SDS011;5183;51.190;6.820;2022-12-18T07:19:55;17.43;;;11.77;;
10275;SDS011;5183;51.190;6.820;2022-12-18T07:22:23;17.53;;;11.93;;
10275;SDS011;5183;51.190;6.820;2022-12-18T07:24:51;20.83;;;12.67;;
10275;SDS011;5183;51.190;6.820;2022-12-18T07:27:18;19.03;;;12.47;;
10275;SDS011;5183;51.190;6.820;2022-12-18T07:29:45;19.70;;;12.40;;
10275;SDS011;5183;51.190;6.820;2022-12-18T07:32:11;18.93;;;12.37;;
10275;SDS011;5183;51.190;6.820;2022-12-18T07:34:38;18.70;;;12.37;;
10275;SDS011;5183;51.190;6.820;2022-12-18T07:37:05;18.00;;;11.57;;
10275;SDS011;5183;51.190;6.820;2022-12-18T07:39:33;18.17;;;12.73;;
10275;SDS011;5183;51.190;6.820;2022-12-18T07:42:00;17.57;;;12.40;;
10275;SDS011;5183;51.190;6.820;2022-12-18T07:44:44;15.67;;;11.50;;
10275;SDS011;5183;51.190;6.820;2022-12-18T07:47:11;18.70;;;12.57;;
10275;SDS011;5183;51.190;6.820;2022-12-18T07:49:38;19.07;;;12.60;;
10275;SDS011;5183;51.190;6.820;2022-12-18T07:52:05;20.10;;;13.60;;
10275;SDS011;5183;51.190;6.820;2022-12-18T07:54:31;17.47;;;12.47;;
10275;SDS011;5183;51.190;6.820;2022-12-18T07:57:00;20.17;;;13.30;;
10275;SDS011;5183;51.190;6.820;2022-12-18T07:59:26;19.07;;;12.60;;
10275;SDS011;5183;51.190;6.820;2022-12-18T08:01:53;18.97;;;12.37;;
10275;SDS011;5183;51.190;6.820;2022-12-18T08:04:20;18.70;;;13.33;;
10275;SDS011;5183;51.190;6.820;2022-12-18T08:06:47;20.00;;;14.25;;
10275;SDS011;5183;51.190;6.820;2022-12-18T08:09:14;18.67;;;12.73;;
10275;SDS011;5183;51.190;6.820;2022-12-18T08:11:42;17.67;;;12.00;;
10275;SDS011;5183;51.190;6.820;2022-12-18T08:14:09;18.37;;;12.40;;
10275;SDS011;5183;51.190;6.820;2022-12-18T08:16:36;16.83;;;12.47;;
10275;SDS011;5183;51.190;6.820;2022-12-18T08:19:03;17.73;;;12.43;;
10275;SDS011;5183;51.190;6.820;2022-12-18T08:21:30;17.73;;;12.20;;
10275;SDS011;5183;51.190;6.820;2022-12-18T08:23:58;19.53;;;13.10;;
10275;SDS011;5183;51.190;6.820;2022-12-18T08:26:27;19.97;;;13.43;;
10275;SDS011;5183;51.190;6.820;2022-12-18T08:28:57;18.53;;;12.83;;
10275;SDS011;5183;51.190;6.820;2022-12-18T08:31:26;18.92;;;13.68;;
10275;SDS011;5183;51.190;6.820;2022-12-18T08:33:54;18.03;;;12.60;;
10275;SDS011;5183;51.190;6.820;2022-12-18T08:36:22;19.77;;;14.27;;
10275;SDS011;5183;51.190;6.820;2022-12-18T08:38:49;18.13;;;12.10;;
10275;SDS011;5183;51.190;6.820;2022-12-18T08:41:16;18.67;;;12.93;;
10275;SDS011;5183;51.190;6.820;2022-12-18T08:43:44;19.63;;;12.53;;
10275;SDS011;5183;51.190;6.820;2022-12-18T08:46:32;18.73;;;12.73;;
10275;SDS011;5183;51.190;6.820;2022-12-18T08:49:01;18.33;;;13.07;;
10275;SDS011;5183;51.190;6.820;2022-12-18T08:51:29;18.70;;;12.93;;
10275;SDS011;5183;51.190;6.820;2022-12-18T08:53:55;19.43;;;12.47;;
10275;SDS011;5183;51.190;6.820;2022-12-18T08:56:22;18.00;;;12.60;;
10275;SDS011;5183;51.190;6.820;2022-12-18T08:58:50;19.20;;;13.27;;
10275;SDS011;5183;51.190;6.820;2022-12-18T09:01:18;18.63;;;13.00;;
10275;SDS011;5183;51.190;6.820;2022-12-18T09:03:49;18.27;;;12.70;;
10275;SDS011;5183;51.190;6.820;2022-12-18T09:06:17;19.07;;;13.00;;
10275;SDS011;5183;51.190;6.820;2022-12-18T09:08:46;20.80;;;13.10;;
10275;SDS011;5183;51.190;6.820;2022-12-18T09:11:14;20.53;;;12.77;;
10275;SDS011;5183;51.190;6.820;2022-12-18T09:13:47;19.07;;;13.10;;
10275;SDS011;5183;51.190;6.820;2022-12-18T09:16:14;19.13;;;12.63;;
10275;SDS011;5183;51.190;6.820;2022-12-18T09:18:41;17.90;;;12.87;;
10275;SDS011;5183;51.190;6.820;2022-12-18T09:21:10;18.77;;;12.60;;
10275;SDS011;5183;51.190;6.820;2022-12-18T09:23:37;19.43;;;13.17;;
10275;SDS011;5183;51.190;6.820;2022-12-18T09:26:04;20.17;;;13.30;;
10275;SDS011;5183;51.190;6.820;2022-12-18T09:28:31;19.83;;;13.23;;
10275;SDS011;5183;51.190;6.820;2022-12-18T09:30:58;20.50;;;13.50;;
10275;SDS011;5183;51.190;6.820;2022-12-18T09:33:29;18.50;;;12.73;;
10275;SDS011;5183;51.190;6.820;2022-12-18T09:35:56;20.13;;;13.03;;
10275;SDS011;5183;51.190;6.820;2022-12-18T09:38:24;18.27;;;13.00;;
10275;SDS011;5183;51.190;6.820;2022-12-18T09:40:51;18.67;;;12.60;;
10275;SDS011;5183;51.190;6.820;2022-12-18T09:43:22;16.40;;;11.70;;
10275;SDS011;5183;51.190;6.820;2022-12-18T09:45:53;19.10;;;12.77;;
10275;SDS011;5183;51.190;6.820;2022-12-18T09:48:25;19.40;;;12.23;;
10275;SDS011;5183;51.190;6.820;2022-12-18T09:50:57;17.73;;;12.20;;
10275;SDS011;5183;51.190;6.820;2022-12-18T09:53:30;19.60;;;13.03;;
10275;SDS011;5183;51.190;6.820;2022-12-18T09:56:01;18.23;;;11.60;;
10275;SDS011;5183;51.190;6.820;2022-12-18T09:58:31;18.00;;;11.90;;
10275;SDS011;5183;51.190;6.820;2022-12-18T10:01:02;18.30;;;12.20;;
10275;SDS011;5183;51.190;6.820;2022-12-18T10:03:35;18.03;;;11.93;;
10275;SDS011;5183;51.190;6.820;2022-12-18T10:06:05;18.13;;;12.20;;
10275;SDS011;5183;51.190;6.820;2022-12-18T10:08:39;17.73;;;12.30;;
10275;SDS011;5183;51.190;6.820;2022-12-18T10:11:25;17.50;;;12.40;;
10275;SDS011;5183;51.190;6.820;2022-12-18T10:14:01;19.60;;;12.30;;
10275;SDS011;5183;51.190;6.820;2022-12-18T10:16:35;17.57;;;12.00;;
10275;SDS011;5183;51.190;6.820;2022-12-18T10:19:14;17.97;;;12.57;;
10275;SDS011;5183;51.190;6.820;2022-12-18T10:21:51;15.77;;;11.70;;
10275;SDS011;5183;51.190;6.820;2022-12-18T10:24:26;18.80;;;12.03;;
10275;SDS011;5183;51.190;6.820;2022-12-18T10:27:04;17.40;;;12.40;;
10275;SDS011;5183;51.190;6.820;2022-12-18T10:29:38;16.43;;;12.03;;
10275;SDS011;5183;51.190;6.820;2022-12-18T10:32:06;17.23;;;12.30;;
10275;SDS011;5183;51.190;6.820;2022-12-18T10:34:38;16.40;;;11.87;;
10275;SDS011;5183;51.190;6.820;2022-12-18T10:37:06;16.40;;;12.27;;
10275;SDS011;5183;51.190;6.820;2022-12-18T10:39:39;18.60;;;12.30;;
10275;SDS011;5183;51.190;6.820;2022-12-18T10:42:09;16.07;;;11.47;;
10275;SDS011;5183;51.190;6.820;2022-12-18T10:44:38;14.87;;;11.63;;
10275;SDS011;5183;51.190;6.820;2022-12-18T10:47:06;14.80;;;11.17;;
10275;SDS011;5183;51.190;6.820;2022-12-18T10:49:39;16.87;;;11.60;;
10275;SDS011;5183;51.190;6.820;2022-12-18T10:52:16;17.17;;;11.93;;
10275;SDS011;5183;51.190;6.820;2022-12-18T10:54:48;16.50;;;11.30;;
10275;SDS011;5183;51.190;6.820;2022-12-18T10:57:17;16.13;;;11.30;;
10275;SDS011;5183;51.190;6.820;2022-12-18T10:59:57;16.40;;;11.77;;
10275;SDS011;5183;51.190;6.820;2022-12-18T11:02:26;17.50;;;11.73;;
10275;SDS011;5183;51.190;6.820;2022-12-18T11:04:54;15.77;;;11.03;;
10275;SDS011;5183;51.190;6.820;2022-12-18T11:07:21;18.37;;;11.70;;
10275;SDS011;5183;51.190;6.820;2022-12-18T11:09:59;16.83;;;11.17;;
10275;SDS011;5183;51.190;6.820;2022-12-18T11:12:29;16.83;;;12.03;;
10275;SDS011;5183;51.190;6.820;2022-12-18T11:14:56;16.20;;;10.93;;
10275;SDS011;5183;51.190;6.820;2022-12-18T11:17:26;15.37;;;10.93;;
10275;SDS011;5183;51.190;6.820;2022-12-18T11:19:55;15.70;;;11.50;;
10275;SDS011;5183;51.190;6.820;2022-12-18T11:22:23;16.73;;;11.70;;
10275;SDS011;5183;51.190;6.820;2022-12-18T11:24:53;14.97;;;11.00;;
10275;SDS011;5183;51.190;6.820;2022-12-18T11:27:24;15.93;;;11.40;;
10275;SDS011;5183;51.190;6.820;2022-12-18T11:29:52;17.30;;;11.83;;
10275;SDS011;5183;51.190;6.820;2022-12-18T11:32:33;15.77;;;11.80;;
10275;SDS011;5183;51.190;6.820;2022-12-18T11:35:03;17.47;;;12.47;;
10275;SDS011;5183;51.190;6.820;2022-12-18T11:37:38;16.57;;;11.83;;
10275;SDS011;5183;51.190;6.820;2022-12-18T11:40:11;20.07;;;13.07;;
10275;SDS011;5183;51.190;6.820;2022-12-18T11:42:44;17.87;;;11.97;;
10275;SDS011;5183;51.190;6.820;2022-12-18T11:45:21;18.30;;;11.90;;
10275;SDS011;5183;51.190;6.820;2022-12-18T11:47:54;19.10;;;12.17;;
10275;SDS011;5183;51.190;6.820;2022-12-18T11:50:25;15.87;;;11.03;;
10275;SDS011;5183;51.190;6.820;2022-12-18T11:52:55;18.30;;;12.60;;
10275;SDS011;5183;51.190;6.820;2022-12-18T11:55:26;21.87;;;13.20;;
10275;SDS011;5183;51.190;6.820;2022-12-18T11:58:01;17.70;;;12.73;;
10275;SDS011;5183;51.190;6.820;2022-12-18T12:00:34;18.10;;;12.90;;
10275;SDS011;5183;51.190;6.820;2022-12-18T12:03:35;18.47;;;12.37;;
10275;SDS011;5183;51.190;6.820;2022-12-18T12:06:29;20.03;;;13.97;;
10275;SDS011;5183;51.190;6.820;2022-12-18T12:09:05;18.97;;;13.40;;
10275;SDS011;5183;51.190;6.820;2022-12-18T12:11:41;19.60;;;13.83;;
10275;SDS011;5183;51.190;6.820;2022-12-18T12:14:22;19.33;;;13.37;;
10275;SDS011;5183;51.190;6.820;2022-12-18T12:16:58;18.93;;;13.77;;
10275;SDS011;5183;51.190;6.820;2022-12-18T12:19:38;22.50;;;13.53;;
10275;SDS011;5183;51.190;6.820;2022-12-18T12:22:15;21.80;;;13.53;;
10275;SDS011;5183;51.190;6.820;2022-12-18T12:24:49;21.07;;;13.33;;
10275;SDS011;5183;51.190;6.820;2022-12-18T12:27:28;20.00;;;14.67;;
10275;SDS011;5183;51.190;6.820;2022-12-18T12:30:03;22.27;;;14.47;;
10275;SDS011;5183;51.190;6.820;2022-12-18T12:32:37;21.20;;;14.37;;
10275;SDS011;5183;51.190;6.820;2022-12-18T12:35:20;21.60;;;14.73;;
10275;SDS011;5183;51.190;6.820;2022-12-18T12:37:58;22.03;;;14.87;;
10275;SDS011;5183;51.190;6.820;2022-12-18T12:40:31;23.30;;;15.87;;
10275;SDS011;5183;51.190;6.820;2022-12-18T12:43:02;23.97;;;16.23;;
10275;SDS011;5183;51.190;6.820;2022-12-18T12:45:42;21.57;;;15.77;;
10275;SDS011;5183;51.190;6.820;2022-12-18T12:48:16;22.23;;;15.77;;
10275;SDS011;5183;51.190;6.820;2022-12-18T12:50:46;22.37;;;15.33;;
10275;SDS011;5183;51.190;6.820;2022-12-18T12:53:17;21.43;;;15.03;;
10275;SDS011;5183;51.190;6.820;2022-12-18T12:55:51;25.37;;;15.67;;
10275;SDS011;5183;51.190;6.820;2022-12-18T12:58:22;22.30;;;15.30;;
10275;SDS011;5183;51.190;6.820;2022-12-18T13:00:59;23.73;;;16.07;;
10275;SDS011;5183;51.190;6.820;2022-12-18T13:03:36;22.27;;;15.37;;
10275;SDS011;5183;51.190;6.820;2022-12-18T13:06:12;24.47;;;16.90;;
10275;SDS011;5183;51.190;6.820;2022-12-18T13:08:52;24.07;;;16.00;;
10275;SDS011;5183;51.190;6.820;2022-12-18T13:11:29;23.67;;;15.80;;
10275;SDS011;5183;51.190;6.820;2022-12-18T13:14:28;25.37;;;17.57;;
10275;SDS011;5183;51.190;6.820;2022-12-18T13:17:13;23.77;;;16.37;;
10275;SDS011;5183;51.190;6.820;2022-12-18T13:20:02;22.87;;;16.00;;
10275;SDS011;5183;51.190;6.820;2022-12-18T13:22:34;24.43;;;16.33;;
10275;SDS011;5183;51.190;6.820;2022-12-18T13:25:02;21.57;;;16.27;;
10275;SDS011;5183;51.190;6.820;2022-12-18T13:28:00;25.57;;;15.77;;
10275;SDS011;5183;51.190;6.820;2022-12-18T13:30:48;24.77;;;16.97;;
10275;SDS011;5183;51.190;6.820;2022-12-18T13:33:37;24.10;;;16.07;;
10275;SDS011;5183;51.190;6.820;2022-12-18T13:36:15;28.43;;;16.80;;
10275;SDS011;5183;51.190;6.820;2022-12-18T13:45:37;25.80;;;17.13;;
10275;SDS011;5183;51.190;6.820;2022-12-18T13:48:14;25.10;;;17.47;;
10275;SDS011;5183;51.190;6.820;2022-12-18T13:50:49;25.57;;;16.90;;
10275;SDS011;5183;51.190;6.820;2022-12-18T13:53:21;27.70;;;17.83;;
10275;SDS011;5183;51.190;6.820;2022-12-18T13:55:51;24.17;;;16.93;;
10275;SDS011;5183;51.190;6.820;2022-12-18T13:58:18;25.10;;;17.67;;
10275;SDS011;5183;51.190;6.820;2022-12-18T14:00:45;25.30;;;17.37;;
10275;SDS011;5183;51.190;6.820;2022-12-18T14:03:17;27.07;;;17.90;;
10275;SDS011;5183;51.190;6.820;2022-12-18T14:05:46;24.93;;;17.27;;
10275;SDS011;5183;51.190;6.820;2022-12-18T14:08:24;26.03;;;17.40;;
10275;SDS011;5183;51.190;6.820;2022-12-18T14:10:58;25.43;;;17.43;;
10275;SDS011;5183;51.190;6.820;2022-12-18T14:13:27;24.83;;;17.43;;
10275;SDS011;5183;51.190;6.820;2022-12-18T14:15:56;26.87;;;17.73;;
10275;SDS011;5183;51.190;6.820;2022-12-18T14:18:26;25.50;;;17.10;;
10275;SDS011;5183;51.190;6.820;2022-12-18T14:21:00;26.77;;;17.90;;
10275;SDS011;5183;51.190;6.820;2022-12-18T14:23:29;28.80;;;17.80;;
10275;SDS011;5183;51.190;6.820;2022-12-18T14:25:58;27.67;;;19.27;;
10275;SDS011;5183;51.190;6.820;2022-12-18T14:28:26;27.20;;;18.27;;
10275;SDS011;5183;51.190;6.820;2022-12-18T14:30:53;26.60;;;18.03;;
10275;SDS011;5183;51.190;6.820;2022-12-18T14:33:21;25.27;;;18.13;;
10275;SDS011;5183;51.190;6.820;2022-12-18T14:35:55;26.87;;;17.70;;
10275;SDS011;5183;51.190;6.820;2022-12-18T14:38:25;29.00;;;19.03;;
10275;SDS011;5183;51.190;6.820;2022-12-18T14:40:54;28.27;;;18.20;;
10275;SDS011;5183;51.190;6.820;2022-12-18T14:43:25;29.63;;;19.23;;
10275;SDS011;5183;51.190;6.820;2022-12-18T14:45:53;28.50;;;19.07;;
10275;SDS011;5183;51.190;6.820;2022-12-18T14:48:21;28.23;;;18.77;;
10275;SDS011;5183;51.190;6.820;2022-12-18T14:50:58;30.13;;;18.80;;
10275;SDS011;5183;51.190;6.820;2022-12-18T14:53:34;28.40;;;19.47;;
10275;SDS011;5183;51.190;6.820;2022-12-18T14:56:04;28.87;;;19.30;;
10275;SDS011;5183;51.190;6.820;2022-12-18T14:58:46;28.67;;;19.53;;
10275;SDS011;5183;51.190;6.820;2022-12-18T15:01:18;28.83;;;18.63;;
10275;SDS011;5183;51.190;6.820;2022-12-18T15:03:56;28.43;;;19.40;;
10275;SDS011;5183;51.190;6.820;2022-12-18T15:06:27;26.30;;;19.57;;
10275;SDS011;5183;51.190;6.820;2022-12-18T15:08:57;30.10;;;20.07;;
10275;SDS011;5183;51.190;6.820;2022-12-18T15:11:28;30.00;;;18.67;;
10275;SDS011;5183;51.190;6.820;2022-12-18T15:16:50;30.77;;;20.03;;
10275;SDS011;5183;51.190;6.820;2022-12-18T15:19:18;25.17;;;18.57;;
10275;SDS011;5183;51.190;6.820;2022-12-18T15:21:47;30.10;;;19.27;;
10275;SDS011;5183;51.190;6.820;2022-12-18T15:24:16;28.80;;;18.87;;
10275;SDS011;5183;51.190;6.820;2022-12-18T15:26:46;31.67;;;20.33;;
10275;SDS011;5183;51.190;6.820;2022-12-18T15:29:18;31.70;;;19.47;;
10275;SDS011;5183;51.190;6.820;2022-12-18T15:32:03;30.33;;;20.00;;
10275;SDS011;5183;51.190;6.820;2022-12-18T15:34:31;29.50;;;19.37;;
10275;SDS011;5183;51.190;6.820;2022-12-18T15:37:01;31.50;;;20.20;;
10275;SDS011;5183;51.190;6.820;2022-12-18T15:39:28;31.00;;;19.43;;
10275;SDS011;5183;51.190;6.820;2022-12-18T15:41:54;26.87;;;18.80;;
10275;SDS011;5183;51.190;6.820;2022-12-18T15:44:39;31.07;;;20.77;;
10275;SDS011;5183;51.190;6.820;2022-12-18T15:47:09;29.90;;;20.07;;
10275;SDS011;5183;51.190;6.820;2022-12-18T15:49:37;33.80;;;19.63;;
10275;SDS011;5183;51.190;6.820;2022-12-18T15:52:05;30.73;;;20.13;;
10275;SDS011;5183;51.190;6.820;2022-12-18T15:54:37;31.53;;;20.33;;
10275;SDS011;5183;51.190;6.820;2022-12-18T15:57:21;29.33;;;20.37;;
10275;SDS011;5183;51.190;6.820;2022-12-18T15:59:51;31.45;;;23.13;;
10275;SDS011;5183;51.190;6.820;2022-12-18T16:02:21;33.37;;;21.33;;
10275;SDS011;5183;51.190;6.820;2022-12-18T16:04:48;35.77;;;20.73;;
10275;SDS011;5183;51.190;6.820;2022-12-18T16:07:17;29.37;;;20.87;;
10275;SDS011;5183;51.190;6.820;2022-12-18T16:09:44;33.60;;;21.57;;
10275;SDS011;5183;51.190;6.820;2022-12-18T16:12:14;35.20;;;22.23;;
10275;SDS011;5183;51.190;6.820;2022-12-18T16:14:42;32.43;;;22.23;;
10275;SDS011;5183;51.190;6.820;2022-12-18T16:17:10;34.30;;;21.23;;
10275;SDS011;5183;51.190;6.820;2022-12-18T16:19:37;36.30;;;22.77;;
10275;SDS011;5183;51.190;6.820;2022-12-18T16:22:15;36.67;;;22.53;;
10275;SDS011;5183;51.190;6.820;2022-12-18T16:24:47;33.60;;;21.90;;
10275;SDS011;5183;51.190;6.820;2022-12-18T16:27:14;35.27;;;22.57;;
10275;SDS011;5183;51.190;6.820;2022-12-18T16:29:41;33.70;;;21.40;;
10275;SDS011;5183;51.190;6.820;2022-12-18T16:32:08;35.00;;;22.97;;
10275;SDS011;5183;51.190;6.820;2022-12-18T16:34:38;35.17;;;22.30;;
10275;SDS011;5183;51.190;6.820;2022-12-18T16:37:07;34.10;;;22.53;;
10275;SDS011;5183;51.190;6.820;2022-12-18T16:39:37;36.20;;;23.87;;
10275;SDS011;5183;51.190;6.820;2022-12-18T16:42:05;33.83;;;23.90;;
10275;SDS011;5183;51.190;6.820;2022-12-18T16:44:37;34.20;;;22.23;;
10275;SDS011;5183;51.190;6.820;2022-12-18T16:47:04;34.43;;;23.27;;
10275;SDS011;5183;51.190;6.820;2022-12-18T16:49:31;36.93;;;24.10;;
10275;SDS011;5183;51.190;6.820;2022-12-18T16:51:58;38.07;;;24.60;;
10275;SDS011;5183;51.190;6.820;2022-12-18T16:54:28;36.57;;;25.67;;
10275;SDS011;5183;51.190;6.820;2022-12-18T16:56:56;39.03;;;25.03;;
10275;SDS011;5183;51.190;6.820;2022-12-18T16:59:24;38.87;;;24.57;;
10275;SDS011;5183;51.190;6.820;2022-12-18T17:01:51;38.27;;;24.70;;
10275;SDS011;5183;51.190;6.820;2022-12-18T17:04:19;38.20;;;25.47;;
10275;SDS011;5183;51.190;6.820;2022-12-18T17:06:46;37.53;;;24.40;;
10275;SDS011;5183;51.190;6.820;2022-12-18T17:09:16;37.87;;;24.57;;
10275;SDS011;5183;51.190;6.820;2022-12-18T17:11:44;39.13;;;25.83;;
10275;SDS011;5183;51.190;6.820;2022-12-18T17:14:13;38.43;;;23.67;;
10275;SDS011;5183;51.190;6.820;2022-12-18T17:16:41;43.83;;;26.93;;
10275;SDS011;5183;51.190;6.820;2022-12-18T17:19:07;40.27;;;25.00;;
10275;SDS011;5183;51.190;6.820;2022-12-18T17:21:34;41.23;;;26.30;;
10275;SDS011;5183;51.190;6.820;2022-12-18T17:24:01;39.60;;;25.60;;
10275;SDS011;5183;51.190;6.820;2022-12-18T17:26:29;41.93;;;26.70;;
10275;SDS011;5183;51.190;6.820;2022-12-18T17:28:56;41.47;;;26.33;;
10275;SDS011;5183;51.190;6.820;2022-12-18T17:31:25;42.53;;;25.70;;
10275;SDS011;5183;51.190;6.820;2022-12-18T17:33:53;39.67;;;25.30;;
10275;SDS011;5183;51.190;6.820;2022-12-18T17:36:21;44.13;;;27.53;;
10275;SDS011;5183;51.190;6.820;2022-12-18T17:38:49;43.77;;;27.20;;
10275;SDS011;5183;51.190;6.820;2022-12-18T17:41:17;45.77;;;28.23;;
10275;SDS011;5183;51.190;6.820;2022-12-18T17:43:49;39.70;;;25.17;;
10275;SDS011;5183;51.190;6.820;2022-12-18T17:46:16;42.30;;;25.73;;
10275;SDS011;5183;51.190;6.820;2022-12-18T17:48:44;40.40;;;25.50;;
10275;SDS011;5183;51.190;6.820;2022-12-18T17:51:11;43.37;;;27.27;;
10275;SDS011;5183;51.190;6.820;2022-12-18T17:53:39;43.20;;;28.03;;
10275;SDS011;5183;51.190;6.820;2022-12-18T17:56:07;42.83;;;28.57;;
10275;SDS011;5183;51.190;6.820;2022-12-18T17:58:36;47.27;;;29.17;;
10275;SDS011;5183;51.190;6.820;2022-12-18T18:01:03;46.15;;;29.98;;
10275;SDS011;5183;51.190;6.820;2022-12-18T18:03:32;42.73;;;27.70;;
10275;SDS011;5183;51.190;6.820;2022-12-18T18:06:03;43.83;;;27.27;;
10275;SDS011;5183;51.190;6.820;2022-12-18T18:08:30;45.77;;;28.80;;
10275;SDS011;5183;51.190;6.820;2022-12-18T18:11:01;47.13;;;28.33;;
10275;SDS011;5183;51.190;6.820;2022-12-18T18:13:43;48.53;;;29.13;;
10275;SDS011;5183;51.190;6.820;2022-12-18T18:16:30;42.37;;;28.07;;
10275;SDS011;5183;51.190;6.820;2022-12-18T18:18:59;45.47;;;27.47;;
10275;SDS011;5183;51.190;6.820;2022-12-18T18:21:27;48.17;;;28.97;;
10275;SDS011;5183;51.190;6.820;2022-12-18T18:23:57;45.30;;;27.63;;
10275;SDS011;5183;51.190;6.820;2022-12-18T18:26:26;47.40;;;28.87;;
10275;SDS011;5183;51.190;6.820;2022-12-18T18:28:55;45.47;;;27.83;;
10275;SDS011;5183;51.190;6.820;2022-12-18T18:31:24;46.27;;;29.27;;
10275;SDS011;5183;51.190;6.820;2022-12-18T18:33:51;45.27;;;28.60;;
10275;SDS011;5183;51.190;6.820;2022-12-18T18:36:18;47.33;;;27.07;;
10275;SDS011;5183;51.190;6.820;2022-12-18T18:38:46;47.00;;;28.37;;
10275;SDS011;5183;51.190;6.820;2022-12-18T18:41:14;48.37;;;28.87;;
10275;SDS011;5183;51.190;6.820;2022-12-18T18:43:42;45.67;;;28.23;;
10275;SDS011;5183;51.190;6.820;2022-12-18T18:46:10;48.67;;;30.00;;
10275;SDS011;5183;51.190;6.820;2022-12-18T18:48:38;48.03;;;29.87;;
10275;SDS011;5183;51.190;6.820;2022-12-18T18:51:06;47.70;;;29.20;;
10275;SDS011;5183;51.190;6.820;2022-12-18T18:53:35;45.20;;;28.93;;
10275;SDS011;5183;51.190;6.820;2022-12-18T18:56:04;44.70;;;27.87;;
10275;SDS011;5183;51.190;6.820;2022-12-18T18:58:32;46.50;;;28.33;;
10275;SDS011;5183;51.190;6.820;2022-12-18T19:01:00;49.53;;;28.60;;
10275;SDS011;5183;51.190;6.820;2022-12-18T19:03:28;46.40;;;28.37;;
10275;SDS011;5183;51.190;6.820;2022-12-18T19:05:56;49.73;;;30.23;;
10275;SDS011;5183;51.190;6.820;2022-12-18T19:08:25;47.13;;;28.43;;
10275;SDS011;5183;51.190;6.820;2022-12-18T19:10:53;47.47;;;28.77;;
10275;SDS011;5183;51.190;6.820;2022-12-18T19:13:23;50.03;;;28.73;;
10275;SDS011;5183;51.190;6.820;2022-12-18T19:15:51;49.63;;;28.43;;
10275;SDS011;5183;51.190;6.820;2022-12-18T19:18:19;47.07;;;28.77;;
10275;SDS011;5183;51.190;6.820;2022-12-18T19:20:56;48.27;;;28.30;;
10275;SDS011;5183;51.190;6.820;2022-12-18T19:23:24;46.37;;;28.90;;
10275;SDS011;5183;51.190;6.820;2022-12-18T19:25:51;46.87;;;29.17;;
10275;SDS011;5183;51.190;6.820;2022-12-18T19:28:20;46.00;;;27.87;;
10275;SDS011;5183;51.190;6.820;2022-12-18T19:30:52;45.70;;;27.93;;
10275;SDS011;5183;51.190;6.820;2022-12-18T19:33:20;47.13;;;27.57;;
10275;SDS011;5183;51.190;6.820;2022-12-18T19:35:49;48.10;;;28.10;;
10275;SDS011;5183;51.190;6.820;2022-12-18T19:38:16;46.37;;;28.13;;
10275;SDS011;5183;51.190;6.820;2022-12-18T19:40:43;49.63;;;28.33;;
10275;SDS011;5183;51.190;6.820;2022-12-18T19:43:11;47.30;;;29.10;;
10275;SDS011;5183;51.190;6.820;2022-12-18T19:45:39;45.83;;;27.97;;
10275;SDS011;5183;51.190;6.820;2022-12-18T19:48:07;48.90;;;28.47;;
10275;SDS011;5183;51.190;6.820;2022-12-18T19:50:39;47.73;;;28.93;;
10275;SDS011;5183;51.190;6.820;2022-12-18T19:53:06;46.53;;;27.63;;
10275;SDS011;5183;51.190;6.820;2022-12-18T19:55:38;45.47;;;27.60;;
10275;SDS011;5183;51.190;6.820;2022-12-18T19:58:05;47.13;;;28.30;;
10275;SDS011;5183;51.190;6.820;2022-12-18T20:00:32;50.20;;;27.67;;
10275;SDS011;5183;51.190;6.820;2022-12-18T20:03:01;43.63;;;26.97;;
10275;SDS011;5183;51.190;6.820;2022-12-18T20:05:27;46.97;;;26.17;;
10275;SDS011;5183;51.190;6.820;2022-12-18T20:07:54;48.23;;;27.50;;
10275;SDS011;5183;51.190;6.820;2022-12-18T20:10:21;47.90;;;27.10;;
10275;SDS011;5183;51.190;6.820;2022-12-18T20:12:49;46.67;;;26.77;;
10275;SDS011;5183;51.190;6.820;2022-12-18T20:15:15;51.37;;;29.13;;
10275;SDS011;5183;51.190;6.820;2022-12-18T20:17:43;45.50;;;26.93;;
10275;SDS011;5183;51.190;6.820;2022-12-18T20:20:11;47.37;;;27.83;;
10275;SDS011;5183;51.190;6.820;2022-12-18T20:22:38;46.53;;;26.63;;
10275;SDS011;5183;51.190;6.820;2022-12-18T20:25:05;47.50;;;28.33;;
10275;SDS011;5183;51.190;6.820;2022-12-18T20:27:32;46.87;;;27.37;;
10275;SDS011;5183;51.190;6.820;2022-12-18T20:29:59;47.10;;;27.50;;
10275;SDS011;5183;51.190;6.820;2022-12-18T20:32:26;44.83;;;27.30;;
10275;SDS011;5183;51.190;6.820;2022-12-18T20:34:53;55.00;;;32.67;;
10275;SDS011;5183;51.190;6.820;2022-12-18T20:37:21;56.47;;;35.67;;
10275;SDS011;5183;51.190;6.820;2022-12-18T20:39:48;49.07;;;27.90;;
10275;SDS011;5183;51.190;6.820;2022-12-18T20:42:15;47.33;;;26.33;;
10275;SDS011;5183;51.190;6.820;2022-12-18T20:44:42;47.90;;;27.33;;
10275;SDS011;5183;51.190;6.820;2022-12-18T20:47:09;47.13;;;27.60;;
10275;SDS011;5183;51.190;6.820;2022-12-18T20:49:36;47.60;;;27.83;;
10275;SDS011;5183;51.190;6.820;2022-12-18T20:52:03;44.70;;;26.03;;
10275;SDS011;5183;51.190;6.820;2022-12-18T20:54:31;48.00;;;26.57;;
10275;SDS011;5183;51.190;6.820;2022-12-18T20:56:58;47.87;;;27.13;;
10275;SDS011;5183;51.190;6.820;2022-12-18T20:59:25;47.90;;;26.67;;
10275;SDS011;5183;51.190;6.820;2022-12-18T21:01:52;45.60;;;25.50;;
10275;SDS011;5183;51.190;6.820;2022-12-18T21:04:19;48.17;;;27.90;;
10275;SDS011;5183;51.190;6.820;2022-12-18T21:06:47;47.10;;;26.73;;
10275;SDS011;5183;51.190;6.820;2022-12-18T21:09:15;49.37;;;28.23;;
10275;SDS011;5183;51.190;6.820;2022-12-18T21:11:43;50.70;;;27.80;;
10275;SDS011;5183;51.190;6.820;2022-12-18T21:14:27;45.53;;;26.27;;
10275;SDS011;5183;51.190;6.820;2022-12-18T21:16:55;46.73;;;27.30;;
10275;SDS011;5183;51.190;6.820;2022-12-18T21:19:25;47.33;;;27.70;;
10275;SDS011;5183;51.190;6.820;2022-12-18T21:21:52;47.43;;;26.50;;
10275;SDS011;5183;51.190;6.820;2022-12-18T21:24:20;46.13;;;26.53;;
10275;SDS011;5183;51.190;6.820;2022-12-18T21:26:48;45.30;;;26.57;;
10275;SDS011;5183;51.190;6.820;2022-12-18T21:29:17;52.43;;;30.07;;
10275;SDS011;5183;51.190;6.820;2022-12-18T21:31:45;49.67;;;29.20;;
10275;SDS011;5183;51.190;6.820;2022-12-18T21:34:13;49.63;;;27.93;;